Time;durP1;ratioP1;P1;durP2;ratioP2;P2;SDS_P1;SDS_P2;PMS_P1;PMS_P2;Temp;Humidity;BMP_temperature;BMP_pressure;BME280_temperature;BME280_humidity;BME280_pressure;Samples;Min_cycle;Max_cycle;Signal;HPM_P1;HPM_P2
2023/05/17 00:00:53;;;;;;;6.23;5.93;;;12.50;17.60;;;;;;5061636;28;20553;-73
2023/05/17 00:03:19;;;;;;;6.97;6.67;;;12.50;17.70;;;;;;5064870;28;20199;-73
2023/05/17 00:05:45;;;;;;;6.20;5.90;;;12.50;17.50;;;;;;5062203;28;20521;-75
2023/05/17 00:08:11;;;;;;;5.93;5.63;;;12.50;17.70;;;;;;5062447;28;20461;-73
2023/05/17 00:10:36;;;;;;;6.77;6.40;;;12.50;17.90;;;;;;5063040;28;20171;-73
2023/05/17 00:13:02;;;;;;;6.90;6.40;;;12.50;17.80;;;;;;5062087;28;20167;-74
2023/05/17 00:15:28;;;;;;;6.30;6.00;;;12.50;17.90;;;;;;5061248;28;20201;-73
2023/05/17 00:17:54;;;;;;;6.50;6.20;;;12.50;17.80;;;;;;5063160;28;20510;-74
2023/05/17 00:20:20;;;;;;;6.60;6.40;;;12.50;17.80;;;;;;5044941;28;20179;-73
2023/05/17 00:22:46;;;;;;;7.30;7.00;;;12.40;17.90;;;;;;5063753;28;20417;-73
2023/05/17 00:25:12;;;;;;;7.33;6.93;;;12.40;18.00;;;;;;5043537;28;20456;-76
2023/05/17 00:27:37;;;;;;;6.87;6.47;;;12.40;18.00;;;;;;5063235;28;20233;-73
2023/05/17 00:30:03;;;;;;;6.90;6.60;;;12.40;18.10;;;;;;5061513;28;20171;-72
2023/05/17 00:32:29;;;;;;;6.20;5.87;;;12.40;18.10;;;;;;5063379;28;20180;-73
2023/05/17 00:34:55;;;;;;;6.70;6.40;;;12.40;18.10;;;;;;5067449;28;20436;-74
2023/05/17 00:37:20;;;;;;;7.30;6.63;;;12.30;18.30;;;;;;5063855;28;20167;-76
2023/05/17 00:39:46;;;;;;;7.13;6.73;;;12.30;18.40;;;;;;5064812;28;20412;-74
2023/05/17 00:42:11;;;;;;;6.93;6.40;;;12.30;18.40;;;;;;5064519;28;20266;-75
2023/05/17 00:44:37;;;;;;;8.40;7.00;;;12.30;18.50;;;;;;5063374;28;20590;-73
2023/05/17 00:47:03;;;;;;;6.53;6.13;;;12.30;18.60;;;;;;5045254;28;20230;-75
2023/05/17 00:49:28;;;;;;;6.70;6.20;;;12.30;18.80;;;;;;5064436;28;20656;-74
2023/05/17 00:51:54;;;;;;;7.87;7.40;;;12.30;18.60;;;;;;5045714;28;20183;-74
2023/05/17 00:54:20;;;;;;;7.37;6.97;;;12.30;18.60;;;;;;5065172;28;20548;-73
2023/05/17 00:56:47;;;;;;;7.10;6.60;;;12.40;18.70;;;;;;5062389;28;20641;-73
2023/05/17 00:59:13;;;;;;;7.07;6.77;;;12.40;19.50;;;;;;5063942;28;20412;-75
2023/05/17 01:01:42;;;;;;;7.00;6.70;;;12.40;18.60;;;;;;5065900;28;20433;-74
2023/05/17 01:04:08;;;;;;;7.23;6.73;;;12.50;18.40;;;;;;5063664;28;21575;-74
2023/05/17 01:06:35;;;;;;;7.33;6.87;;;12.50;18.40;;;;;;5061839;28;21061;-73
2023/05/17 01:09:02;;;;;;;7.10;6.70;;;12.50;18.30;;;;;;5063708;28;20457;-74
2023/05/17 01:12:12;;;;;;;7.40;7.00;;;12.60;18.40;;;;;;5065556;28;20425;-71
2023/05/17 01:14:50;;;;;;;7.77;7.07;;;12.60;18.40;;;;;;5041455;28;20445;-74
2023/05/17 01:17:20;;;;;;;7.07;6.67;;;12.50;18.40;;;;;;5044536;28;20405;-73
2023/05/17 01:19:54;;;;;;;8.20;7.80;;;12.40;18.50;;;;;;5062943;28;20441;-74
2023/05/17 01:22:30;;;;;;;7.17;6.77;;;12.40;18.50;;;;;;5043202;28;20487;-74
2023/05/17 01:25:38;;;;;;;7.10;6.70;;;12.40;18.70;;;;;;5062942;28;20437;-74
2023/05/17 01:28:05;;;;;;;7.17;6.77;;;12.40;18.80;;;;;;5060369;28;20453;-77
2023/05/17 01:30:32;;;;;;;6.60;6.30;;;12.40;19.00;;;;;;5061361;28;20421;-78
2023/05/17 01:32:59;;;;;;;7.03;6.63;;;12.40;18.80;;;;;;5046068;28;20508;-74
2023/05/17 01:35:25;;;;;;;7.00;6.70;;;12.40;18.90;;;;;;5063073;28;20430;-74
2023/05/17 01:37:52;;;;;;;6.67;6.37;;;12.40;19.00;;;;;;5062767;28;20409;-75
2023/05/17 01:40:19;;;;;;;6.57;6.27;;;12.40;19.50;;;;;;5062092;28;20413;-74
2023/05/17 01:43:01;;;;;;;7.33;6.50;;;12.40;18.90;;;;;;5063069;28;20424;-73
2023/05/17 01:45:32;;;;;;;8.00;7.30;;;12.40;19.00;;;;;;5059073;28;20421;-74
2023/05/17 01:48:20;;;;;;;7.47;7.07;;;12.40;19.10;;;;;;5062823;28;21053;-76
2023/05/17 01:50:49;;;;;;;7.40;7.03;;;12.40;19.10;;;;;;5043802;28;20489;-73
2023/05/17 01:53:27;;;;;;;7.53;7.03;;;12.40;19.10;;;;;;5062041;28;20421;-73
2023/05/17 01:55:57;;;;;;;8.03;7.63;;;12.40;18.80;;;;;;5061725;28;20496;-74
2023/05/17 01:58:25;;;;;;;7.17;6.90;;;12.30;19.30;;;;;;5061231;28;20912;-76
2023/05/17 02:00:54;;;;;;;7.73;7.27;;;12.30;19.30;;;;;;5060778;28;20418;-73
2023/05/17 02:03:20;;;;;;;7.73;7.30;;;12.30;19.40;;;;;;5059233;28;20429;-73
2023/05/17 02:05:46;;;;;;;7.50;7.20;;;12.30;19.60;;;;;;5061660;28;20930;-73
2023/05/17 02:08:12;;;;;;;7.57;7.07;;;12.20;19.90;;;;;;5061368;28;21047;-73
2023/05/17 02:10:37;;;;;;;8.00;7.60;;;12.20;19.70;;;;;;5062236;28;20171;-74
2023/05/17 02:13:03;;;;;;;8.10;7.60;;;12.20;19.40;;;;;;5041551;28;20421;-75
2023/05/17 02:15:29;;;;;;;7.20;6.87;;;12.20;19.40;;;;;;5061381;28;20164;-74
2023/05/17 02:17:55;;;;;;;7.83;7.07;;;12.30;19.40;;;;;;5043752;28;20247;-75
2023/05/17 02:20:21;;;;;;;7.43;7.00;;;12.20;19.50;;;;;;5061792;28;20410;-76
2023/05/17 02:22:46;;;;;;;8.40;7.87;;;12.30;19.50;;;;;;5061466;28;20542;-74
2023/05/17 02:25:12;;;;;;;7.27;6.97;;;12.30;19.30;;;;;;5060678;28;20691;-75
2023/05/17 02:27:37;;;;;;;7.30;7.00;;;12.40;19.50;;;;;;5059664;28;20796;-74
2023/05/17 02:30:03;;;;;;;7.30;7.00;;;12.40;19.40;;;;;;5059615;28;20164;-74
2023/05/17 02:32:30;;;;;;;7.97;7.37;;;12.40;19.50;;;;;;5061327;28;20254;-74
2023/05/17 02:34:55;;;;;;;7.70;7.30;;;12.40;19.30;;;;;;5058766;28;20433;-74
2023/05/17 02:37:21;;;;;;;8.33;7.93;;;12.40;19.40;;;;;;5043334;28;20410;-73
2023/05/17 02:39:46;;;;;;;6.77;6.40;;;12.40;19.30;;;;;;5061379;28;20163;-77
2023/05/17 02:42:12;;;;;;;7.67;7.10;;;12.40;19.70;;;;;;5060513;28;20544;-74
2023/05/17 02:44:38;;;;;;;8.27;7.60;;;12.40;19.40;;;;;;5058664;28;20240;-73
2023/05/17 02:47:03;;;;;;;8.03;7.50;;;12.30;19.70;;;;;;5060329;28;20171;-72
2023/05/17 02:49:29;;;;;;;8.67;7.80;;;12.30;19.70;;;;;;5060938;28;20203;-73
2023/05/17 02:51:55;;;;;;;7.90;7.53;;;12.20;19.70;;;;;;5057900;28;20401;-74
2023/05/17 02:54:20;;;;;;;7.37;6.97;;;12.30;19.90;;;;;;5060504;28;20237;-75
2023/05/17 02:56:46;;;;;;;8.13;7.43;;;12.30;19.90;;;;;;5059526;28;20164;-73
2023/05/17 02:59:11;;;;;;;7.90;7.40;;;12.30;20.00;;;;;;5040956;28;20175;-73
2023/05/17 03:01:37;;;;;;;7.57;7.17;;;12.20;19.90;;;;;;5059418;28;20187;-74
2023/05/17 03:04:02;;;;;;;7.87;7.57;;;12.20;20.10;;;;;;5060279;28;20187;-78
2023/05/17 03:06:28;;;;;;;8.20;7.80;;;12.20;20.30;;;;;;5043372;28;20254;-73
2023/05/17 03:08:53;;;;;;;8.27;7.63;;;12.10;20.30;;;;;;5040585;28;21195;-75
2023/05/17 03:11:19;;;;;;;8.37;7.87;;;12.10;20.30;;;;;;5041159;28;20187;-74
2023/05/17 03:13:50;;;;;;;8.47;8.00;;;12.10;20.40;;;;;;5059874;28;20697;-73
2023/05/17 03:16:16;;;;;;;7.97;7.57;;;12.10;20.40;;;;;;5059808;28;20175;-73
2023/05/17 03:18:42;;;;;;;8.50;8.10;;;12.10;20.50;;;;;;5059182;28;20903;-73
2023/05/17 03:21:07;;;;;;;8.27;7.47;;;12.10;20.60;;;;;;5057498;28;20425;-75
2023/05/17 03:23:33;;;;;;;9.20;8.53;;;12.00;20.40;;;;;;5058030;28;20282;-73
2023/05/17 03:25:58;;;;;;;7.67;7.23;;;12.00;20.80;;;;;;5056965;28;20179;-73
2023/05/17 03:28:24;;;;;;;8.70;8.23;;;12.00;20.70;;;;;;5057514;28;20206;-73
2023/05/17 03:30:50;;;;;;;8.03;7.70;;;12.00;20.70;;;;;;5039262;28;20278;-75
2023/05/17 03:33:15;;;;;;;9.00;8.40;;;12.00;20.90;;;;;;5056108;28;20248;-73
2023/05/17 03:35:41;;;;;;;8.17;7.57;;;12.00;21.00;;;;;;5056671;28;20820;-74
2023/05/17 03:38:07;;;;;;;7.40;7.00;;;12.00;20.80;;;;;;5038940;28;20190;-73
2023/05/17 03:40:32;;;;;;;7.93;7.53;;;12.00;20.80;;;;;;5039757;28;20183;-75
2023/05/17 03:42:58;;;;;;;7.87;7.50;;;12.00;20.70;;;;;;5055851;28;20225;-73
2023/05/17 03:45:23;;;;;;;8.30;7.70;;;11.90;21.00;;;;;;5056150;28;20241;-73
2023/05/17 03:47:49;;;;;;;8.47;8.00;;;11.90;20.80;;;;;;5056521;28;20237;-74
2023/05/17 03:50:14;;;;;;;8.40;8.00;;;11.90;20.90;;;;;;5056871;28;20198;-74
2023/05/17 03:52:40;;;;;;;7.93;7.43;;;11.80;21.30;;;;;;5057884;28;20641;-76
2023/05/17 03:55:06;;;;;;;8.23;7.83;;;11.80;21.20;;;;;;5038312;28;20471;-74
2023/05/17 03:57:32;;;;;;;8.30;7.90;;;11.80;21.20;;;;;;5058462;28;20417;-73
2023/05/17 03:59:58;;;;;;;8.50;7.90;;;11.80;21.20;;;;;;5057515;28;20783;-74
2023/05/17 04:02:24;;;;;;;7.77;7.30;;;11.90;21.30;;;;;;5057011;28;20641;-74
2023/05/17 04:04:50;;;;;;;7.97;7.47;;;11.80;21.20;;;;;;5057514;28;20199;-74
2023/05/17 04:07:16;;;;;;;8.00;7.50;;;11.90;21.50;;;;;;5043828;28;20933;-74
2023/05/17 04:09:42;;;;;;;8.20;7.90;;;11.90;21.30;;;;;;5064283;28;20414;-73
2023/05/17 04:12:09;;;;;;;8.57;8.07;;;11.80;21.20;;;;;;5046085;28;20405;-74
2023/05/17 04:14:35;;;;;;;9.13;8.47;;;11.80;21.10;;;;;;5064434;28;20187;-74
2023/05/17 04:17:01;;;;;;;8.67;8.17;;;11.80;21.20;;;;;;5064719;28;20415;-74
2023/05/17 04:19:26;;;;;;;9.00;8.47;;;11.80;21.60;;;;;;5063844;28;20413;-77
2023/05/17 04:21:52;;;;;;;8.20;7.80;;;11.80;21.60;;;;;;5065210;28;20182;-74
2023/05/17 04:24:17;;;;;;;8.33;7.83;;;11.80;21.80;;;;;;5064443;28;20236;-73
2023/05/17 04:26:43;;;;;;;7.90;7.60;;;11.70;22.00;;;;;;5065980;28;20171;-74
2023/05/17 04:29:09;;;;;;;8.83;8.10;;;11.70;21.90;;;;;;5066745;28;20611;-73
2023/05/17 04:31:34;;;;;;;8.13;7.63;;;11.60;22.30;;;;;;5051350;28;20179;-73
2023/05/17 04:34:00;;;;;;;9.93;9.33;;;11.70;21.70;;;;;;5049399;28;20645;-73
2023/05/17 04:36:25;;;;;;;8.80;8.40;;;11.60;22.00;;;;;;5051988;28;20294;-73
2023/05/17 04:38:51;;;;;;;8.63;8.20;;;11.60;21.90;;;;;;5074826;28;20176;-73
2023/05/17 04:41:16;;;;;;;9.20;8.60;;;11.60;21.80;;;;;;5069560;28;20191;-74
2023/05/17 04:43:42;;;;;;;8.37;7.67;;;11.60;22.10;;;;;;5069111;28;20199;-78
2023/05/17 04:46:08;;;;;;;8.23;7.50;;;11.60;21.90;;;;;;5068511;28;20225;-74
2023/05/17 04:48:34;;;;;;;7.97;7.37;;;11.70;21.80;;;;;;5070187;28;20199;-74
2023/05/17 04:51:01;;;;;;;7.90;7.50;;;11.70;22.10;;;;;;5071920;28;20543;-75
2023/05/17 04:53:26;;;;;;;8.73;8.17;;;11.60;22.20;;;;;;5053661;28;20827;-75
2023/05/17 04:55:52;;;;;;;8.63;8.23;;;11.60;22.10;;;;;;5070966;28;20409;-72
2023/05/17 04:58:18;;;;;;;8.30;7.83;;;11.60;22.20;;;;;;5072098;28;20736;-75
2023/05/17 05:00:43;;;;;;;8.27;7.87;;;11.60;22.10;;;;;;5052934;28;20183;-74
2023/05/17 05:03:09;;;;;;;9.03;8.43;;;11.40;22.80;;;;;;5073103;28;20340;-73
2023/05/17 05:05:35;;;;;;;8.20;7.80;;;11.40;22.60;;;;;;5073137;28;20171;-72
2023/05/17 05:08:00;;;;;;;8.97;8.27;;;11.40;23.00;;;;;;5072171;28;20234;-73
2023/05/17 05:10:27;;;;;;;9.03;8.47;;;11.40;23.30;;;;;;5070719;28;20633;-74
2023/05/17 05:12:57;;;;;;;9.37;8.67;;;11.50;22.80;;;;;;5071222;28;20623;-75
2023/05/17 05:15:22;;;;;;;9.23;8.63;;;11.50;22.40;;;;;;5053209;28;20417;-74
2023/05/17 05:17:48;;;;;;;9.87;9.40;;;11.40;22.60;;;;;;5070814;28;20420;-72
2023/05/17 05:20:14;;;;;;;9.03;8.53;;;11.50;22.80;;;;;;5072309;28;20203;-73
2023/05/17 05:22:40;;;;;;;9.43;8.93;;;11.60;22.90;;;;;;5071972;28;20269;-73
2023/05/17 05:25:06;;;;;;;10.00;9.50;;;11.50;22.60;;;;;;5053818;28;20473;-75
2023/05/17 05:27:34;;;;;;;8.93;8.60;;;11.50;22.60;;;;;;5072675;28;20179;-72
2023/05/17 05:29:59;;;;;;;9.07;8.57;;;11.60;22.70;;;;;;5071235;28;20409;-73
2023/05/17 05:32:25;;;;;;;9.07;8.47;;;11.60;22.60;;;;;;5073764;28;20420;-74
2023/05/17 05:34:50;;;;;;;9.40;9.00;;;11.60;22.70;;;;;;5074044;28;20290;-73
2023/05/17 05:37:18;;;;;;;9.27;8.77;;;11.70;22.70;;;;;;5074266;28;20625;-78
2023/05/17 05:39:44;;;;;;;10.10;9.60;;;11.70;22.60;;;;;;5073429;28;20716;-74
2023/05/17 05:42:09;;;;;;;9.40;8.80;;;11.60;23.10;;;;;;5072771;28;20455;-76
2023/05/17 05:44:35;;;;;;;8.60;8.10;;;11.50;24.20;;;;;;5074078;28;20536;-74
2023/05/17 05:47:00;;;;;;;9.03;8.40;;;11.60;23.40;;;;;;5073321;28;20634;-76
2023/05/17 05:49:26;;;;;;;9.53;9.03;;;11.70;23.70;;;;;;5073701;28;20723;-75
2023/05/17 05:51:51;;;;;;;8.80;8.40;;;11.80;24.40;;;;;;5055330;28;20164;-73
2023/05/17 05:54:17;;;;;;;9.37;8.57;;;11.80;23.30;;;;;;5073119;28;20187;-74
2023/05/17 05:56:42;;;;;;;8.77;8.20;;;11.70;23.20;;;;;;5070161;28;20202;-74
2023/05/17 05:59:08;;;;;;;8.53;7.93;;;11.70;23.50;;;;;;5069697;28;20232;-76
2023/05/17 06:01:33;;;;;;;9.27;8.67;;;11.80;23.90;;;;;;5069491;28;20199;-76
2023/05/17 06:03:59;;;;;;;9.03;8.47;;;11.80;24.40;;;;;;5050819;28;20282;-76
2023/05/17 06:06:25;;;;;;;9.17;8.67;;;11.80;23.40;;;;;;5054384;28;20199;-77
2023/05/17 06:08:50;;;;;;;9.37;8.47;;;11.80;23.00;;;;;;5071890;28;20199;-75
2023/05/17 06:11:17;;;;;;;8.97;8.40;;;11.90;23.00;;;;;;5069316;28;20167;-75
2023/05/17 06:13:43;;;;;;;9.97;9.43;;;11.90;22.80;;;;;;5052885;28;20222;-76
2023/05/17 06:16:08;;;;;;;9.13;8.53;;;11.80;22.80;;;;;;5070960;28;20441;-76
2023/05/17 06:18:34;;;;;;;9.93;9.53;;;11.70;23.50;;;;;;5072338;28;20197;-75
2023/05/17 06:20:59;;;;;;;9.40;8.60;;;11.40;24.10;;;;;;5052359;28;20264;-74
2023/05/17 06:23:25;;;;;;;9.83;9.20;;;11.40;24.20;;;;;;5070579;28;20203;-76
2023/05/17 06:25:51;;;;;;;9.80;9.23;;;11.40;24.50;;;;;;5071503;28;20199;-76
2023/05/17 06:28:17;;;;;;;9.40;8.80;;;11.50;24.20;;;;;;5070568;28;20274;-75
2023/05/17 06:30:42;;;;;;;9.63;9.13;;;11.60;23.60;;;;;;5050419;28;20266;-77
2023/05/17 06:33:08;;;;;;;9.90;9.20;;;11.70;23.60;;;;;;5052635;28;20178;-76
2023/05/17 06:35:34;;;;;;;11.10;10.30;;;11.70;23.30;;;;;;5072516;28;20178;-75
2023/05/17 06:38:00;;;;;;;9.73;9.17;;;11.60;23.40;;;;;;5054334;28;20186;-75
2023/05/17 06:40:25;;;;;;;9.37;8.63;;;11.50;24.00;;;;;;5054378;28;20418;-75
2023/05/17 06:42:51;;;;;;;10.80;10.00;;;11.60;24.30;;;;;;5054049;28;20262;-73
2023/05/17 06:45:17;;;;;;;10.37;9.53;;;11.60;24.30;;;;;;5072715;28;20182;-74
2023/05/17 06:47:42;;;;;;;9.30;8.80;;;11.60;24.30;;;;;;5072062;28;20666;-74
2023/05/17 06:50:08;;;;;;;10.10;9.60;;;11.60;24.30;;;;;;5072196;28;20175;-75
2023/05/17 06:52:35;;;;;;;10.17;9.57;;;11.40;24.10;;;;;;5058867;28;20167;-76
2023/05/17 06:55:00;;;;;;;9.60;8.80;;;11.40;24.80;;;;;;5072036;28;20429;-75
2023/05/17 06:57:26;;;;;;;9.57;8.67;;;11.60;24.60;;;;;;5072495;28;20501;-73
2023/05/17 06:59:51;;;;;;;10.23;9.37;;;11.70;24.40;;;;;;5072503;28;20179;-74
2023/05/17 07:02:17;;;;;;;9.37;8.83;;;11.80;24.40;;;;;;5072044;28;20190;-74
2023/05/17 07:04:43;;;;;;;9.13;8.63;;;12.00;23.90;;;;;;5072252;28;20191;-74
2023/05/17 07:07:10;;;;;;;9.40;8.90;;;11.90;24.30;;;;;;5054363;28;20467;-74
2023/05/17 07:09:36;;;;;;;9.77;9.17;;;12.00;24.10;;;;;;5068606;28;20202;-74
2023/05/17 07:12:01;;;;;;;9.57;9.17;;;12.00;24.20;;;;;;5070946;28;20414;-73
2023/05/17 07:14:27;;;;;;;10.20;9.60;;;12.00;24.60;;;;;;5053303;28;20282;-74
2023/05/17 07:16:52;;;;;;;10.07;9.40;;;12.10;24.50;;;;;;5071535;28;20198;-73
2023/05/17 07:19:18;;;;;;;10.97;9.97;;;12.10;24.40;;;;;;5069706;28;20189;-74
2023/05/17 07:21:44;;;;;;;9.90;9.30;;;12.20;24.00;;;;;;5060461;28;20646;-74
2023/05/17 07:24:09;;;;;;;9.80;9.10;;;12.10;24.60;;;;;;5052318;28;20249;-74
2023/05/17 07:26:35;;;;;;;9.80;9.30;;;12.20;24.20;;;;;;5052214;28;20176;-75
2023/05/17 07:29:00;;;;;;;10.53;9.47;;;12.20;23.90;;;;;;5052257;28;20226;-73
2023/05/17 07:31:26;;;;;;;10.07;9.37;;;12.30;23.40;;;;;;5051653;28;20638;-73
2023/05/17 07:33:52;;;;;;;9.83;9.23;;;12.30;23.20;;;;;;5051970;28;20184;-73
2023/05/17 07:36:17;;;;;;;10.37;9.67;;;12.20;23.60;;;;;;5034211;28;20221;-75
2023/05/17 07:38:43;;;;;;;10.03;9.23;;;12.30;23.40;;;;;;5060161;28;20650;-73
2023/05/17 07:41:11;;;;;;;10.80;10.10;;;12.20;24.10;;;;;;5070541;28;20544;-74
2023/05/17 07:43:36;;;;;;;10.53;9.80;;;12.20;23.70;;;;;;5071994;28;20284;-73
2023/05/17 07:46:02;;;;;;;10.90;10.20;;;12.30;23.90;;;;;;5071802;28;20837;-75
2023/05/17 07:48:28;;;;;;;10.43;9.83;;;12.40;23.80;;;;;;5053844;28;20643;-72
2023/05/17 07:50:54;;;;;;;10.90;10.20;;;12.40;23.70;;;;;;5071829;28;20437;-72
2023/05/17 07:53:19;;;;;;;11.33;10.53;;;12.50;23.70;;;;;;5071229;28;20190;-72
2023/05/17 07:55:45;;;;;;;12.90;11.77;;;12.50;23.40;;;;;;5071751;28;20167;-73
2023/05/17 07:58:11;;;;;;;10.80;10.20;;;12.50;23.30;;;;;;5071679;28;20178;-74
2023/05/17 08:00:37;;;;;;;11.43;10.80;;;12.60;24.40;;;;;;5053819;28;20668;-74
2023/05/17 08:03:03;;;;;;;11.10;10.40;;;12.50;23.50;;;;;;5071054;28;20195;-74
2023/05/17 08:05:29;;;;;;;11.27;10.53;;;12.40;24.20;;;;;;5053389;28;20429;-75
2023/05/17 08:07:54;;;;;;;11.33;10.50;;;12.50;23.50;;;;;;5053625;28;20211;-73
2023/05/17 08:10:21;;;;;;;10.90;10.30;;;12.60;23.30;;;;;;5071745;28;20164;-73
2023/05/17 08:12:47;;;;;;;11.63;10.90;;;12.50;23.70;;;;;;5071099;28;20705;-74
2023/05/17 08:15:12;;;;;;;10.83;10.13;;;12.50;23.90;;;;;;5053579;28;20544;-73
2023/05/17 08:17:38;;;;;;;10.40;9.70;;;12.70;23.20;;;;;;5071537;28;20197;-76
2023/05/17 08:20:06;;;;;;;11.03;10.23;;;12.80;23.00;;;;;;5071442;28;20221;-76
2023/05/17 08:22:32;;;;;;;10.33;9.73;;;12.90;22.80;;;;;;5070718;28;20638;-76
2023/05/17 08:24:57;;;;;;;12.40;11.50;;;13.00;22.70;;;;;;5071387;28;20433;-78
2023/05/17 08:27:24;;;;;;;11.70;10.83;;;13.10;22.60;;;;;;5071717;28;20172;-73
2023/05/17 08:29:50;;;;;;;10.80;10.20;;;13.10;22.60;;;;;;5053403;28;20646;-77
2023/05/17 08:32:16;;;;;;;11.07;10.30;;;13.20;22.50;;;;;;5052817;28;20410;-75
2023/05/17 08:34:41;;;;;;;10.97;10.07;;;13.20;22.50;;;;;;5071236;28;20198;-73
2023/05/17 08:37:07;;;;;;;11.53;10.80;;;13.10;22.50;;;;;;5071290;28;20168;-73
2023/05/17 08:39:32;;;;;;;10.60;9.90;;;13.10;22.90;;;;;;5071502;28;20645;-77
2023/05/17 08:42:01;;;;;;;12.00;11.00;;;13.20;22.20;;;;;;5052442;28;20213;-76
2023/05/17 08:44:30;;;;;;;12.37;11.37;;;13.20;22.20;;;;;;5071234;28;20278;-76
2023/05/17 08:46:58;;;;;;;11.57;10.87;;;13.20;22.50;;;;;;5071429;28;20445;-76
2023/05/17 08:49:26;;;;;;;9.90;9.30;;;13.10;22.40;;;;;;5071525;28;20798;-77
2023/05/17 08:51:58;;;;;;;10.33;9.63;;;13.20;22.60;;;;;;5071014;28;20783;-75
2023/05/17 08:54:24;;;;;;;11.73;10.63;;;13.20;22.50;;;;;;5075222;28;20435;-77
2023/05/17 08:56:57;;;;;;;11.60;10.90;;;13.20;22.40;;;;;;5075025;28;20406;-76
2023/05/17 08:59:25;;;;;;;11.10;10.30;;;13.20;22.20;;;;;;5056954;28;20183;-75
2023/05/17 09:01:53;;;;;;;11.43;10.53;;;13.20;22.20;;;;;;5056038;28;20445;-75
2023/05/17 09:04:19;;;;;;;11.63;10.73;;;13.10;22.40;;;;;;5074302;28;20858;-75
2023/05/17 09:06:45;;;;;;;10.90;10.17;;;13.20;22.50;;;;;;5076641;28;20409;-76
2023/05/17 09:09:10;;;;;;;11.80;11.00;;;13.20;21.90;;;;;;5075011;28;20482;-73
2023/05/17 09:11:36;;;;;;;11.00;10.30;;;13.20;21.70;;;;;;5074080;28;20401;-74
2023/05/17 09:14:04;;;;;;;11.83;11.00;;;13.30;21.30;;;;;;5056476;28;20199;-73
2023/05/17 09:16:34;;;;;;;10.60;10.10;;;13.30;21.50;;;;;;5074164;28;20155;-75
2023/05/17 09:19:01;;;;;;;10.07;9.47;;;13.30;21.30;;;;;;5054935;28;20417;-74
2023/05/17 09:21:30;;;;;;;10.00;9.30;;;13.30;21.40;;;;;;5075180;28;20449;-77
2023/05/17 09:23:58;;;;;;;10.50;9.80;;;13.30;20.80;;;;;;5076039;28;20484;-76
2023/05/17 09:26:24;;;;;;;10.00;9.30;;;13.30;21.40;;;;;;5057924;28;20842;-75
2023/05/17 09:28:52;;;;;;;10.97;10.27;;;13.40;21.40;;;;;;5076377;28;20487;-77
2023/05/17 09:31:18;;;;;;;9.50;8.90;;;13.50;20.60;;;;;;5057869;28;20417;-77
2023/05/17 09:33:43;;;;;;;10.77;9.97;;;13.50;20.20;;;;;;5075492;28;20463;-75
2023/05/17 09:36:17;;;;;;;9.60;9.10;;;13.60;20.20;;;;;;5074947;28;20919;-77
2023/05/17 09:38:50;;;;;;;10.73;9.90;;;13.50;20.10;;;;;;5074641;28;20175;-77
2023/05/17 09:41:16;;;;;;;9.97;9.47;;;13.60;20.00;;;;;;5074107;28;20463;-76
2023/05/17 09:43:42;;;;;;;9.73;9.10;;;13.70;18.90;;;;;;5075232;28;20523;-75
2023/05/17 09:46:08;;;;;;;10.60;10.00;;;13.70;18.60;;;;;;5075417;28;20189;-74
2023/05/17 09:48:37;;;;;;;9.07;8.57;;;13.70;18.40;;;;;;5074555;28;20826;-76
2023/05/17 09:51:04;;;;;;;9.90;9.10;;;13.80;18.10;;;;;;5059180;28;20266;-80
2023/05/17 09:53:38;;;;;;;9.37;8.87;;;13.90;17.50;;;;;;5059185;28;20434;-75
2023/05/17 09:56:05;;;;;;;10.17;9.30;;;14.00;17.60;;;;;;5057617;28;20920;-73
2023/05/17 09:58:33;;;;;;;9.33;8.83;;;13.90;18.10;;;;;;5075438;28;20406;-76
2023/05/17 10:01:03;;;;;;;9.10;8.60;;;14.00;17.60;;;;;;5078215;28;20418;-75
2023/05/17 10:03:34;;;;;;;9.17;8.67;;;14.20;16.70;;;;;;5075968;28;20508;-76
2023/05/17 10:06:04;;;;;;;8.97;8.47;;;14.30;16.50;;;;;;5055362;28;20441;-75
2023/05/17 10:08:31;;;;;;;9.37;8.77;;;14.50;16.70;;;;;;5055682;28;20476;-76
2023/05/17 10:11:02;;;;;;;9.70;8.67;;;14.40;15.70;;;;;;5055909;28;20420;-77
2023/05/17 10:13:40;;;;;;;9.33;8.67;;;14.40;15.60;;;;;;5073562;28;20457;-76
2023/05/17 10:16:06;;;;;;;10.33;9.30;;;14.30;16.00;;;;;;5056110;28;20421;-76
2023/05/17 10:18:32;;;;;;;9.60;8.90;;;14.30;15.80;;;;;;5056110;28;20421;-77
2023/05/17 10:21:00;;;;;;;9.43;8.53;;;14.30;16.30;;;;;;5056246;28;20491;-76
2023/05/17 10:23:26;;;;;;;9.50;8.70;;;14.30;16.00;;;;;;5055373;28;20433;-76
2023/05/17 10:25:52;;;;;;;9.70;8.97;;;14.50;16.50;;;;;;5073771;28;20954;-76
2023/05/17 10:28:19;;;;;;;9.03;8.43;;;14.60;16.30;;;;;;5073362;28;20682;-76
2023/05/17 10:30:47;;;;;;;9.37;8.70;;;14.70;16.00;;;;;;5073583;28;20424;-74
2023/05/17 10:33:16;;;;;;;9.57;8.40;;;14.60;15.70;;;;;;5072472;28;20487;-76
2023/05/17 10:35:43;;;;;;;9.20;8.70;;;14.60;16.50;;;;;;5055511;28;20765;-75
2023/05/17 10:38:10;;;;;;;9.03;8.50;;;14.60;16.40;;;;;;5073434;28;20418;-75
2023/05/17 10:40:38;;;;;;;9.37;8.77;;;14.60;16.70;;;;;;5073932;28;20413;-75
2023/05/17 10:43:05;;;;;;;10.10;9.40;;;14.50;16.70;;;;;;5054654;28;20760;-75
2023/05/17 10:45:31;;;;;;;9.43;8.50;;;14.40;17.70;;;;;;5073495;28;21078;-77
2023/05/17 10:48:04;;;;;;;10.30;9.60;;;14.40;17.40;;;;;;5073521;28;20541;-76
2023/05/17 10:50:30;;;;;;;9.33;8.60;;;14.20;17.80;;;;;;5073091;28;20167;-74
2023/05/17 10:52:58;;;;;;;10.10;9.40;;;14.30;17.80;;;;;;5072265;28;20436;-75
2023/05/17 10:55:41;;;;;;;8.80;8.20;;;14.40;17.90;;;;;;5056167;28;20172;-76
2023/05/17 10:58:20;;;;;;;10.00;9.43;;;14.30;17.80;;;;;;5073568;28;20413;-75
2023/05/17 11:00:52;;;;;;;9.60;9.03;;;14.30;16.60;;;;;;5074314;28;20435;-74
2023/05/17 11:03:19;;;;;;;9.43;8.63;;;14.30;16.80;;;;;;5072295;28;20863;-75
2023/05/17 11:06:11;;;;;;;9.10;8.60;;;14.40;16.90;;;;;;5070046;28;20417;-76
2023/05/17 11:08:46;;;;;;;9.60;8.93;;;14.40;16.90;;;;;;5046985;28;20465;-76
2023/05/17 11:11:12;;;;;;;9.10;8.60;;;14.40;17.50;;;;;;5054228;28;20421;-75
2023/05/17 11:13:54;;;;;;;9.77;9.07;;;14.40;16.30;;;;;;5072515;28;21144;-76
2023/05/17 11:16:22;;;;;;;9.90;9.40;;;14.40;16.60;;;;;;5074187;28;20471;-76
2023/05/17 11:18:52;;;;;;;9.83;9.23;;;14.40;16.60;;;;;;5073322;28;20405;-74
2023/05/17 11:21:20;;;;;;;8.67;8.17;;;14.50;16.70;;;;;;5054634;28;20429;-75
2023/05/17 11:23:46;;;;;;;9.17;8.60;;;14.50;16.20;;;;;;5072415;28;20448;-76
2023/05/17 11:26:17;;;;;;;10.60;9.90;;;14.50;16.10;;;;;;5072954;28;20417;-76
2023/05/17 11:28:43;;;;;;;10.47;9.83;;;14.50;16.10;;;;;;5054898;28;20457;-76
2023/05/17 11:31:09;;;;;;;9.50;8.90;;;14.50;16.30;;;;;;5079331;28;20409;-76
2023/05/17 11:33:45;;;;;;;10.53;9.93;;;14.40;16.60;;;;;;5077914;28;20448;-75
2023/05/17 11:36:18;;;;;;;9.77;9.07;;;14.40;16.90;;;;;;5082752;28;20171;-73
2023/05/17 11:38:48;;;;;;;9.60;9.00;;;14.30;17.10;;;;;;5075753;28;20476;-74
2023/05/17 11:41:20;;;;;;;9.47;8.87;;;14.30;17.20;;;;;;5077668;28;20472;-74
2023/05/17 11:43:47;;;;;;;9.97;9.40;;;14.30;17.80;;;;;;5073673;28;20997;-75
2023/05/17 11:46:23;;;;;;;10.60;10.00;;;14.20;17.80;;;;;;5074275;28;20413;-75
2023/05/17 11:48:52;;;;;;;10.40;9.80;;;14.30;17.80;;;;;;5074578;28;20854;-76
2023/05/17 11:51:21;;;;;;;10.63;9.73;;;14.30;17.80;;;;;;5055457;28;20920;-74
2023/05/17 11:53:48;;;;;;;9.83;8.90;;;14.30;17.30;;;;;;5055595;28;20433;-75
2023/05/17 11:56:14;;;;;;;10.00;9.40;;;14.30;17.80;;;;;;5073304;28;20950;-74
2023/05/17 11:58:41;;;;;;;9.53;9.03;;;14.30;17.40;;;;;;5073045;28;20421;-74
2023/05/17 12:01:07;;;;;;;10.13;9.40;;;14.30;17.10;;;;;;5072546;28;20421;-74
2023/05/17 12:03:34;;;;;;;9.87;9.37;;;14.20;17.70;;;;;;5055112;28;20853;-75
2023/05/17 12:06:15;;;;;;;11.80;9.50;;;14.10;17.70;;;;;;5073060;28;20512;-75
2023/05/17 12:08:45;;;;;;;9.77;9.17;;;14.20;17.30;;;;;;5073226;28;21050;-74
2023/05/17 12:11:13;;;;;;;10.43;9.83;;;14.30;16.90;;;;;;5072289;28;20421;-75
2023/05/17 12:13:40;;;;;;;9.77;8.87;;;14.30;17.30;;;;;;5073168;28;20436;-75
2023/05/17 12:16:12;;;;;;;8.87;8.33;;;14.20;17.80;;;;;;5072055;28;20421;-75
2023/05/17 12:18:48;;;;;;;8.77;8.10;;;14.30;17.80;;;;;;5036205;28;20548;-73
2023/05/17 12:21:14;;;;;;;9.10;8.60;;;14.40;17.30;;;;;;5052485;28;20826;-75
2023/05/17 12:23:45;;;;;;;9.03;8.43;;;14.30;17.40;;;;;;5062761;28;20539;-75
2023/05/17 12:26:13;;;;;;;8.63;7.97;;;14.40;16.90;;;;;;5072195;28;20846;-75
2023/05/17 12:28:40;;;;;;;9.30;8.80;;;14.40;16.90;;;;;;5074647;28;20464;-75
2023/05/17 12:31:11;;;;;;;8.60;7.93;;;14.40;16.80;;;;;;5075640;28;20827;-74
2023/05/17 12:33:41;;;;;;;8.63;8.13;;;14.50;16.60;;;;;;5082204;28;20624;-75
2023/05/17 12:36:09;;;;;;;9.20;8.70;;;14.60;17.00;;;;;;5078951;28;20459;-74
2023/05/17 12:38:37;;;;;;;9.07;8.57;;;14.50;16.80;;;;;;5082344;28;20431;-74
2023/05/17 12:41:04;;;;;;;8.97;8.47;;;14.60;16.10;;;;;;5081926;28;20424;-71
2023/05/17 12:43:32;;;;;;;9.47;8.80;;;14.60;16.30;;;;;;5081968;28;20931;-73